WMSA

Sultan Abdul Aziz Shah International Airport

Subang, Malaysia
TAF WMSA 151100Z 1512/1612 17008KT 9999 SCT016 BECMG 1513/1515 VRB02KT FEW026 BECMG 1600/1602 18009KT 9999 SCT018
Issued Valid From Valid To
Aug-15 @ 11:00 UTC
(2 hours ago)
Aug-15 @ 12:00 UTC
(38 minutes ago)
Aug-16 @ 12:00 UTC
(in 23 hours)
Aug-15 @ 12:00 to Aug-15 @ 13:00
TAF WMSA 151100Z 1512/1612 17008KT 9999 SCT016
Wind Visibility Clouds
170° at 8 knots 10,000+ meters
  • Scattered at 1,600' AGL
Becoming Aug-15 @ 13:00 to Aug-16 @ 00:00
BECMG 1513/1515 VRB02KT FEW026
Wind Visibility Clouds
Variable at 2 knots 10,000+ meters
  • Few at 2,600' AGL
Becoming Aug-16 @ 00:00 to Aug-16 @ 12:00
BECMG 1600/1602 18009KT 9999 SCT018
Wind Visibility Clouds
180° at 9 knots 10,000+ meters
  • Scattered at 1,800' AGL
TAF WMSA 151100Z 1512/1612 17008KT 9999 SCT016 BECMG 1513/1515 VRB02KT FEW026 BECMG 1600/1602 18009KT 9999 SCT018
Issued Aug-15 @ 11:00 UTC
(2 hours ago)
Valid From Aug-15 @ 12:00 UTC
(38 minutes ago)
Valid To Aug-16 @ 12:00 UTC
(in 23 hours)
Aug-15 @ 12:00 - Aug-15 @ 13:00
Wind Visibility
170° at 8 knots 10,000+ meters
Clouds
  • Scattered at 1,600' AGL
Becoming Aug-15 @ 13:00 - Aug-16 @ 00:00
Wind Visibility
Variable at 2 knots 10,000+ meters
Clouds
  • Few at 2,600' AGL
Becoming Aug-16 @ 00:00 - Aug-16 @ 12:00
Wind Visibility
180° at 9 knots 10,000+ meters
Clouds
  • Scattered at 1,800' AGL